createdAt,value
2019-01-08T00:00:50.330Z,99.90
2019-01-08T00:03:18.188Z,99.90
2019-01-08T00:05:46.114Z,99.90
2019-01-08T00:08:14.214Z,99.90
2019-01-08T00:10:41.781Z,99.90
2019-01-08T00:13:09.859Z,99.90
2019-01-08T00:15:37.797Z,99.90
2019-01-08T00:18:14.251Z,99.90
2019-01-08T00:20:42.448Z,99.90
2019-01-08T00:23:09.931Z,99.90
2019-01-08T00:25:37.745Z,99.90
2019-01-08T00:28:05.648Z,99.90
2019-01-08T00:30:33.708Z,99.90
2019-01-08T00:33:01.635Z,99.90
2019-01-08T00:35:29.210Z,99.90
2019-01-08T00:37:57.408Z,99.90
2019-01-08T00:40:25.298Z,99.90
2019-01-08T00:42:53.592Z,99.90
2019-01-08T00:45:21.136Z,99.90
2019-01-08T00:47:49.471Z,99.90
2019-01-08T00:50:17.069Z,99.90
2019-01-08T00:52:44.999Z,99.90
2019-01-08T00:55:12.764Z,99.90
2019-01-08T00:57:40.332Z,99.90
2019-01-08T01:00:08.518Z,99.90
2019-01-08T01:02:36.395Z,99.90
2019-01-08T01:05:04.448Z,99.90
2019-01-08T01:07:32.810Z,99.90
2019-01-08T01:10:00.621Z,99.90
2019-01-08T01:12:30.671Z,99.90
2019-01-08T01:14:58.192Z,99.90
2019-01-08T01:17:25.710Z,99.90
2019-01-08T01:19:53.085Z,99.90
2019-01-08T01:22:21.341Z,99.90
2019-01-08T01:24:48.808Z,99.90
2019-01-08T01:27:16.978Z,99.90
2019-01-08T01:29:44.580Z,99.90
2019-01-08T01:32:12.879Z,99.90
2019-01-08T01:34:40.723Z,99.90
2019-01-08T01:37:08.269Z,99.90
2019-01-08T01:39:35.951Z,99.90
2019-01-08T01:42:03.564Z,99.90
2019-01-08T01:44:31.168Z,99.90
2019-01-08T01:46:59.033Z,99.90
2019-01-08T01:49:27.287Z,99.90
2019-01-08T01:51:55.078Z,99.90
2019-01-08T01:54:22.613Z,99.90
2019-01-08T01:56:57.881Z,99.90
2019-01-08T01:59:25.494Z,99.90
2019-01-08T02:01:53.399Z,99.90
2019-01-08T02:04:20.993Z,99.90
2019-01-08T02:06:48.878Z,99.90
2019-01-08T02:09:17.063Z,99.90
2019-01-08T02:11:44.566Z,99.90
2019-01-08T02:14:12.092Z,99.90
2019-01-08T02:16:39.609Z,99.90
2019-01-08T02:19:07.232Z,99.90
2019-01-08T02:21:34.847Z,99.90
2019-01-08T02:24:02.734Z,99.90
2019-01-08T02:26:31.108Z,99.90
2019-01-08T02:28:58.991Z,99.90
2019-01-08T02:31:26.617Z,99.90
2019-01-08T02:33:55.245Z,99.90
2019-01-08T02:36:23.733Z,99.90
2019-01-08T02:38:51.693Z,99.90
2019-01-08T02:41:19.917Z,99.90
2019-01-08T02:43:47.505Z,99.90
2019-01-08T02:46:15.196Z,99.90
2019-01-08T02:48:42.958Z,99.90
2019-01-08T02:51:10.912Z,99.90
2019-01-08T02:53:38.788Z,99.90
2019-01-08T02:56:06.300Z,99.90
2019-01-08T02:58:34.324Z,99.90
2019-01-08T03:01:02.428Z,99.90
2019-01-08T03:03:30.344Z,99.90
2019-01-08T03:05:58.092Z,99.90
2019-01-08T03:08:25.519Z,99.90
2019-01-08T03:10:53.370Z,99.90
2019-01-08T03:13:20.891Z,99.90
2019-01-08T03:15:48.439Z,99.90
2019-01-08T03:18:15.966Z,99.90
2019-01-08T03:20:43.598Z,99.90
2019-01-08T03:23:11.595Z,99.90
2019-01-08T03:25:39.518Z,99.90
2019-01-08T03:28:07.390Z,99.90
2019-01-08T03:30:34.910Z,99.90
2019-01-08T03:33:02.437Z,99.90
2019-01-08T03:35:30.297Z,99.90
2019-01-08T03:37:57.703Z,99.90
2019-01-08T03:40:25.618Z,99.90
2019-01-08T03:42:53.473Z,99.90
2019-01-08T03:45:21.531Z,99.90
2019-01-08T03:47:49.498Z,99.90
2019-01-08T03:50:17.007Z,99.90
2019-01-08T03:52:45.027Z,99.90
2019-01-08T03:55:12.587Z,99.90
2019-01-08T03:57:40.542Z,99.90
2019-01-08T04:00:09.408Z,99.90
2019-01-08T04:02:37.324Z,99.90
2019-01-08T04:05:05.380Z,99.90
2019-01-08T04:07:33.664Z,99.90
2019-01-08T04:10:01.199Z,99.90
2019-01-08T04:12:28.764Z,99.90
2019-01-08T04:14:56.776Z,99.90
2019-01-08T04:17:24.561Z,99.90
2019-01-08T04:19:52.097Z,99.90
2019-01-08T04:22:20.049Z,99.90
2019-01-08T04:24:47.474Z,99.90
2019-01-08T04:27:15.683Z,99.90
2019-01-08T04:29:50.372Z,99.90
2019-01-08T04:32:13.037Z,99.90
2019-01-08T04:34:40.923Z,99.90
2019-01-08T04:37:08.906Z,99.90
2019-01-08T04:39:36.857Z,99.90
2019-01-08T04:42:04.688Z,99.90
2019-01-08T04:44:32.181Z,99.90
2019-01-08T04:47:00.199Z,99.90
2019-01-08T04:49:28.415Z,99.90
2019-01-08T04:51:56.388Z,99.90
2019-01-08T04:54:24.472Z,99.90
2019-01-08T04:56:52.227Z,99.90
2019-01-08T04:59:19.804Z,99.90
2019-01-08T05:01:47.302Z,99.90
2019-01-08T05:04:15.178Z,99.90
2019-01-08T05:06:42.755Z,99.90
2019-01-08T05:09:10.737Z,99.90
2019-01-08T05:11:38.287Z,99.90
2019-01-08T05:14:05.758Z,99.90
2019-01-08T05:16:36.376Z,99.90
2019-01-08T05:19:03.867Z,99.90
2019-01-08T05:21:31.875Z,99.90
2019-01-08T05:23:59.977Z,99.90
2019-01-08T05:26:27.494Z,99.90
2019-01-08T05:28:55.041Z,99.90
2019-01-08T05:31:23.293Z,99.90
2019-01-08T05:33:52.598Z,99.90
2019-01-08T05:36:20.332Z,99.90
2019-01-08T05:38:47.933Z,99.90
2019-01-08T05:41:15.563Z,99.90
2019-01-08T05:43:43.348Z,99.90
2019-01-08T05:46:10.799Z,99.90
2019-01-08T05:48:38.425Z,99.90
2019-01-08T05:51:05.931Z,99.90
2019-01-08T05:53:33.550Z,99.90
2019-01-08T05:56:01.449Z,99.90
2019-01-08T05:58:29.597Z,99.90
2019-01-08T06:00:57.447Z,99.90
2019-01-08T06:03:25.311Z,99.90
2019-01-08T06:05:53.502Z,99.90
2019-01-08T06:08:23.721Z,99.90
2019-01-08T06:10:51.243Z,99.90
2019-01-08T06:13:19.316Z,99.90
2019-01-08T06:15:47.394Z,99.90
2019-01-08T06:18:15.346Z,99.90
2019-01-08T06:20:42.995Z,99.90
2019-01-08T06:23:11.079Z,99.90
2019-01-08T06:25:39.598Z,99.90
2019-01-08T06:28:07.388Z,99.90
2019-01-08T06:30:35.180Z,99.90
2019-01-08T06:33:02.756Z,99.90
2019-01-08T06:35:30.267Z,99.90
2019-01-08T06:37:57.844Z,99.90
2019-01-08T06:40:25.438Z,99.90
2019-01-08T06:42:52.911Z,99.90
2019-01-08T06:45:20.324Z,99.90
2019-01-08T06:47:47.975Z,99.90
2019-01-08T06:50:15.535Z,99.90
2019-01-08T06:52:44.430Z,99.90
2019-01-08T06:55:11.956Z,99.90
2019-01-08T06:57:39.479Z,99.90
2019-01-08T07:00:08.848Z,99.90
2019-01-08T07:02:38.325Z,99.90
2019-01-08T07:05:05.644Z,99.90
2019-01-08T07:07:33.187Z,99.90
2019-01-08T07:10:01.278Z,99.90
2019-01-08T07:12:29.568Z,99.90
2019-01-08T07:14:57.695Z,99.90
2019-01-08T07:17:25.330Z,99.90
2019-01-08T07:19:53.146Z,99.90
2019-01-08T07:22:20.646Z,99.90
2019-01-08T07:24:48.571Z,99.90
2019-01-08T07:27:17.438Z,99.90
2019-01-08T07:29:47.129Z,99.90
2019-01-08T07:32:14.647Z,99.90
2019-01-08T07:34:42.212Z,99.90
2019-01-08T07:37:10.690Z,99.90
2019-01-08T07:39:39.496Z,99.90
2019-01-08T07:42:07.247Z,99.90
2019-01-08T07:44:35.086Z,99.90
2019-01-08T07:47:02.814Z,99.90
2019-01-08T07:49:31.032Z,99.90
2019-01-08T07:51:58.811Z,99.90
2019-01-08T07:54:26.870Z,99.90
2019-01-08T07:56:55.327Z,99.90
2019-01-08T07:59:24.139Z,99.90
2019-01-08T08:01:52.207Z,99.90
2019-01-08T08:04:22.389Z,99.90
2019-01-08T08:06:50.289Z,99.90
2019-01-08T08:09:19.289Z,99.90
2019-01-08T08:11:47.260Z,99.90
2019-01-08T08:14:15.536Z,99.90
2019-01-08T08:16:43.467Z,99.90
2019-01-08T08:19:11.676Z,99.90
2019-01-08T08:21:39.413Z,99.90
2019-01-08T08:24:07.311Z,99.90
2019-01-08T08:26:35.511Z,99.90
2019-01-08T08:29:05.482Z,99.90
2019-01-08T08:31:33.146Z,99.90
2019-01-08T08:34:01.237Z,99.90
2019-01-08T08:36:29.112Z,99.90
2019-01-08T08:38:56.831Z,99.90
2019-01-08T08:41:24.515Z,99.90
2019-01-08T08:43:52.087Z,99.90
2019-01-08T08:46:20.163Z,99.90
2019-01-08T08:48:48.009Z,99.90
2019-01-08T08:51:16.102Z,99.90
2019-01-08T08:53:52.012Z,99.90
2019-01-08T08:56:13.418Z,99.90
2019-01-08T08:58:41.472Z,99.90
2019-01-08T09:01:09.563Z,99.90
2019-01-08T09:03:37.333Z,99.90
2019-01-08T09:06:05.119Z,99.90
2019-01-08T09:08:32.998Z,99.90
2019-01-08T09:11:00.637Z,99.90
2019-01-08T09:13:28.635Z,99.90
2019-01-08T09:15:56.207Z,99.90
2019-01-08T09:18:24.077Z,99.90
2019-01-08T09:20:52.269Z,99.90
2019-01-08T09:23:19.919Z,99.90
2019-01-08T09:25:47.811Z,99.90
2019-01-08T09:28:15.466Z,99.90
2019-01-08T09:30:43.495Z,99.90
2019-01-08T09:33:11.184Z,99.90
2019-01-08T09:35:38.630Z,99.90
2019-01-08T09:38:06.616Z,99.90
2019-01-08T09:40:34.286Z,99.90
2019-01-08T09:43:02.528Z,99.90
2019-01-08T09:45:30.217Z,99.90
2019-01-08T09:47:58.002Z,99.90
2019-01-08T09:50:26.297Z,99.90
2019-01-08T09:52:54.287Z,99.90
2019-01-08T09:55:22.295Z,99.90
2019-01-08T09:57:49.803Z,99.90
2019-01-08T10:00:17.621Z,99.90
2019-01-08T10:02:45.637Z,99.90
2019-01-08T10:05:13.572Z,99.90
2019-01-08T10:07:42.116Z,99.90
2019-01-08T10:10:09.919Z,99.90
2019-01-08T10:12:38.066Z,99.90
2019-01-08T10:15:05.922Z,99.90
2019-01-08T10:17:34.683Z,99.90
2019-01-08T10:20:02.420Z,99.90
2019-01-08T10:22:30.214Z,99.90
2019-01-08T10:24:57.822Z,99.90
2019-01-08T10:27:25.427Z,99.90
2019-01-08T10:29:53.365Z,99.90
2019-01-08T10:32:20.883Z,99.90
2019-01-08T10:34:48.749Z,99.90
2019-01-08T10:37:17.117Z,99.90
2019-01-08T10:39:45.687Z,99.90
2019-01-08T10:42:13.471Z,99.90
2019-01-08T10:44:41.084Z,99.90
2019-01-08T10:47:09.166Z,99.90
2019-01-08T10:49:36.708Z,99.90
2019-01-08T10:52:04.688Z,99.90
2019-01-08T10:54:32.695Z,99.90
2019-01-08T10:57:00.774Z,99.90
2019-01-08T10:59:28.711Z,99.90
2019-01-08T11:01:56.634Z,99.90
2019-01-08T11:04:25.437Z,99.90
2019-01-08T11:06:53.602Z,99.90
2019-01-08T11:09:22.823Z,99.90
2019-01-08T11:11:50.535Z,99.90
2019-01-08T11:14:18.201Z,99.90
2019-01-08T11:16:46.404Z,99.90
2019-01-08T11:19:14.015Z,99.90
2019-01-08T11:21:42.052Z,99.90
2019-01-08T11:24:09.811Z,99.90
2019-01-08T11:26:37.375Z,99.90
2019-01-08T11:29:05.138Z,99.90
2019-01-08T11:31:32.796Z,99.90
2019-01-08T11:34:00.323Z,99.90
2019-01-08T11:36:29.051Z,99.90
2019-01-08T11:38:56.900Z,99.90
2019-01-08T11:41:24.868Z,99.90
2019-01-08T11:43:53.115Z,99.90
2019-01-08T11:46:21.138Z,99.90
2019-01-08T11:48:48.846Z,99.90
2019-01-08T11:51:16.510Z,99.90
2019-01-08T11:53:44.110Z,99.90
2019-01-08T11:56:11.725Z,99.90
2019-01-08T11:58:39.360Z,99.90
2019-01-08T12:01:06.853Z,99.90
2019-01-08T12:03:34.748Z,99.90
2019-01-08T12:06:02.227Z,99.90
2019-01-08T12:08:30.185Z,99.90
2019-01-08T12:10:57.747Z,99.90
2019-01-08T12:13:25.272Z,99.90
2019-01-08T12:15:53.177Z,99.90
2019-01-08T12:18:21.052Z,99.90
2019-01-08T12:20:48.731Z,99.90
2019-01-08T12:23:16.793Z,99.90
2019-01-08T12:25:44.368Z,99.90
2019-01-08T12:28:12.099Z,99.90
2019-01-08T12:30:39.703Z,99.90
2019-01-08T12:33:07.398Z,99.90
2019-01-08T12:35:34.911Z,99.90
2019-01-08T12:38:03.018Z,99.90
2019-01-08T12:40:31.827Z,99.90
2019-01-08T12:43:00.548Z,99.90
2019-01-08T12:45:28.263Z,99.90
2019-01-08T12:47:57.898Z,99.90
2019-01-08T12:50:26.064Z,99.90
2019-01-08T12:52:53.925Z,99.90
2019-01-08T12:55:21.812Z,99.90
2019-01-08T12:57:49.485Z,99.90
2019-01-08T13:00:17.516Z,99.90
2019-01-08T13:02:47.850Z,99.90
2019-01-08T13:05:15.641Z,99.90
2019-01-08T13:07:45.609Z,99.90
2019-01-08T13:10:13.575Z,99.90
2019-01-08T13:12:41.484Z,99.90
2019-01-08T13:15:09.627Z,99.90
2019-01-08T13:17:37.843Z,99.90
2019-01-08T13:20:06.075Z,99.90
2019-01-08T13:22:34.429Z,99.90
2019-01-08T13:25:03.183Z,99.90
2019-01-08T13:27:37.671Z,99.90
2019-01-08T13:30:14.253Z,99.90
2019-01-08T13:33:05.027Z,99.90
2019-01-08T13:35:39.538Z,99.90
2019-01-08T13:38:08.865Z,99.90
2019-01-08T13:40:38.363Z,99.90
2019-01-08T13:43:06.530Z,99.90
2019-01-08T13:45:37.547Z,99.90
2019-01-08T13:48:07.931Z,99.90
2019-01-08T13:50:36.388Z,99.90
2019-01-08T13:53:08.768Z,99.90
2019-01-08T13:55:36.920Z,99.90
2019-01-08T13:58:05.119Z,99.90
2019-01-08T14:00:33.839Z,99.90
2019-01-08T14:03:03.163Z,99.90
2019-01-08T14:05:31.688Z,99.90
2019-01-08T14:08:00.529Z,99.90
2019-01-08T14:10:28.452Z,99.90
2019-01-08T14:12:56.593Z,99.90
2019-01-08T14:15:25.244Z,99.90
2019-01-08T14:17:53.158Z,99.90
2019-01-08T14:20:21.276Z,99.90
2019-01-08T14:22:49.015Z,99.90
2019-01-08T14:25:16.628Z,99.90
2019-01-08T14:27:44.377Z,99.90
2019-01-08T14:30:12.081Z,99.90
2019-01-08T14:32:41.039Z,99.90
2019-01-08T14:35:08.889Z,99.90
2019-01-08T14:37:37.618Z,99.90
2019-01-08T14:40:05.970Z,99.90
2019-01-08T14:42:33.988Z,99.90
2019-01-08T14:45:02.005Z,99.90
2019-01-08T14:47:29.728Z,99.90
2019-01-08T14:49:57.761Z,99.90
2019-01-08T14:52:25.701Z,99.90
2019-01-08T14:54:53.950Z,99.90
2019-01-08T14:57:21.669Z,99.90
2019-01-08T14:59:49.377Z,99.90
2019-01-08T15:02:17.063Z,99.90
2019-01-08T15:04:45.928Z,99.90
2019-01-08T15:07:13.825Z,99.90
2019-01-08T15:09:42.942Z,99.90
2019-01-08T15:12:10.721Z,99.90
2019-01-08T15:14:39.544Z,99.90
2019-01-08T15:17:08.705Z,99.90
2019-01-08T15:19:36.805Z,99.90
2019-01-08T15:22:04.345Z,99.90
2019-01-08T15:24:32.131Z,99.90
2019-01-08T15:26:59.838Z,99.90
2019-01-08T15:29:28.573Z,99.90
2019-01-08T15:31:56.519Z,99.90
2019-01-08T15:34:24.380Z,99.90
2019-01-08T15:36:52.623Z,99.90
2019-01-08T15:39:21.225Z,99.90
2019-01-08T15:41:49.581Z,99.90
2019-01-08T15:44:18.528Z,99.90
2019-01-08T15:46:47.073Z,99.90
2019-01-08T15:49:16.353Z,99.90
2019-01-08T15:51:45.455Z,99.90
2019-01-08T15:54:18.580Z,99.90
2019-01-08T15:56:46.391Z,99.90
2019-01-08T15:59:15.172Z,99.90
2019-01-08T16:01:43.621Z,99.90
2019-01-08T16:04:13.727Z,99.90
2019-01-08T16:06:41.954Z,99.90
2019-01-08T16:09:09.718Z,99.90
2019-01-08T16:11:37.707Z,99.90
2019-01-08T16:14:11.145Z,99.90
2019-01-08T16:16:40.683Z,99.90
2019-01-08T16:19:09.374Z,99.90
2019-01-08T16:21:37.172Z,99.90
2019-01-08T16:24:05.015Z,99.90
2019-01-08T16:26:33.084Z,99.90
2019-01-08T16:29:00.641Z,99.90
2019-01-08T16:31:31.033Z,99.90
2019-01-08T16:34:00.129Z,99.90
2019-01-08T16:36:28.355Z,99.90
2019-01-08T16:38:55.998Z,99.90
2019-01-08T16:41:23.570Z,99.90
2019-01-08T16:43:51.072Z,99.90
2019-01-08T16:46:19.047Z,99.90
2019-01-08T16:48:46.726Z,99.90
2019-01-08T16:51:14.682Z,99.90
2019-01-08T16:53:42.597Z,99.90
2019-01-08T16:56:10.275Z,99.90
2019-01-08T16:58:37.876Z,99.90
2019-01-08T17:01:05.567Z,99.90
2019-01-08T17:03:37.168Z,99.90
2019-01-08T17:06:04.751Z,99.90
2019-01-08T17:08:34.702Z,99.90
2019-01-08T17:11:02.316Z,99.90
2019-01-08T17:13:30.855Z,99.90
2019-01-08T17:15:58.572Z,99.90
2019-01-08T17:18:26.846Z,99.90
2019-01-08T17:20:55.562Z,99.90
2019-01-08T17:23:24.014Z,99.90
2019-01-08T17:25:51.807Z,99.90
2019-01-08T17:28:19.574Z,99.90
2019-01-08T17:30:47.309Z,99.90
2019-01-08T17:33:17.459Z,99.90
2019-01-08T17:35:45.943Z,99.90
2019-01-08T17:38:13.504Z,99.40
2019-01-08T17:40:41.019Z,99.90
2019-01-08T17:43:08.514Z,98.30
2019-01-08T17:45:36.519Z,99.10
2019-01-08T17:48:04.228Z,98.80
2019-01-08T17:50:32.146Z,98.20
2019-01-08T17:53:00.433Z,98.30
2019-01-08T17:55:28.405Z,99.20
2019-01-08T17:58:33.861Z,97.60
2019-01-08T18:01:16.471Z,96.80
2019-01-08T18:03:44.383Z,98.30
2019-01-08T18:06:11.995Z,97.60
2019-01-08T18:08:39.627Z,98.30
2019-01-08T18:11:07.236Z,99.20
2019-01-08T18:13:36.416Z,98.50
2019-01-08T18:16:03.924Z,99.80
2019-01-08T18:18:31.527Z,99.90
2019-01-08T18:20:59.082Z,98.60
2019-01-08T18:23:26.671Z,98.60
2019-01-08T18:25:54.581Z,98.10
2019-01-08T18:28:24.220Z,99.90
2019-01-08T18:30:51.799Z,99.90
2019-01-08T18:33:20.619Z,99.90
2019-01-08T18:35:48.361Z,99.90
2019-01-08T18:38:16.578Z,99.90
2019-01-08T18:40:45.410Z,99.90
2019-01-08T18:43:14.176Z,99.90
2019-01-08T18:45:43.295Z,99.90
2019-01-08T18:48:11.223Z,99.90
2019-01-08T18:50:39.460Z,99.90
2019-01-08T18:53:07.073Z,99.90
2019-01-08T18:55:35.352Z,99.90
2019-01-08T18:58:02.927Z,99.90
2019-01-08T19:00:31.024Z,99.90
2019-01-08T19:02:58.755Z,99.90
2019-01-08T19:05:27.008Z,99.90
2019-01-08T19:07:55.091Z,99.90
2019-01-08T19:10:22.804Z,99.90
2019-01-08T19:12:50.589Z,99.90
2019-01-08T19:15:19.700Z,99.90
2019-01-08T19:17:47.456Z,99.90
2019-01-08T19:20:16.596Z,99.90
2019-01-08T19:22:50.995Z,99.90
2019-01-08T19:25:19.155Z,99.90
2019-01-08T19:27:48.220Z,99.90
2019-01-08T19:30:18.862Z,99.90
2019-01-08T19:32:46.765Z,99.90
2019-01-08T19:35:15.248Z,99.90
2019-01-08T19:37:46.394Z,99.90
2019-01-08T19:40:16.642Z,99.90
2019-01-08T19:42:44.783Z,99.90
2019-01-08T19:45:13.152Z,99.90
2019-01-08T19:47:42.604Z,99.90
2019-01-08T19:50:15.001Z,99.90
2019-01-08T19:52:43.473Z,99.90
2019-01-08T19:55:14.463Z,99.90
2019-01-08T19:57:45.507Z,99.90
2019-01-08T20:00:20.594Z,99.90
2019-01-08T20:02:58.735Z,99.90
2019-01-08T20:05:29.603Z,99.90
2019-01-08T20:07:59.566Z,99.90
2019-01-08T20:10:28.936Z,99.90
2019-01-08T20:12:57.490Z,99.90
2019-01-08T20:15:30.847Z,99.90
2019-01-08T20:17:59.328Z,99.90
2019-01-08T20:20:27.795Z,99.90
2019-01-08T20:22:57.098Z,99.90
2019-01-08T20:25:26.489Z,99.90
2019-01-08T20:27:54.730Z,99.90
2019-01-08T20:30:23.277Z,99.90
2019-01-08T20:32:53.051Z,99.90
2019-01-08T20:35:24.260Z,99.90
2019-01-08T20:37:52.247Z,99.90
2019-01-08T20:40:24.217Z,99.90
2019-01-08T20:42:52.861Z,99.90
2019-01-08T20:45:22.807Z,99.90
2019-01-08T20:47:51.125Z,99.90
2019-01-08T20:50:29.165Z,99.90
2019-01-08T20:52:58.707Z,99.90
2019-01-08T20:55:27.842Z,99.90
2019-01-08T20:58:02.196Z,99.90
2019-01-08T21:00:30.183Z,99.90
2019-01-08T21:03:00.674Z,99.90
2019-01-08T21:05:28.387Z,99.90
2019-01-08T21:07:59.991Z,99.90
2019-01-08T21:10:28.356Z,99.90
2019-01-08T21:12:56.444Z,99.90
2019-01-08T21:15:25.195Z,99.90
2019-01-08T21:17:53.806Z,99.90
2019-01-08T21:20:22.794Z,99.90
2019-01-08T21:22:50.494Z,99.90
2019-01-08T21:25:18.460Z,99.90
2019-01-08T21:27:47.902Z,99.90
2019-01-08T21:30:17.526Z,99.90
2019-01-08T21:32:46.986Z,99.90
2019-01-08T21:35:15.099Z,99.90
2019-01-08T21:37:46.101Z,99.90
2019-01-08T21:40:14.404Z,99.90
2019-01-08T21:42:47.991Z,99.90
2019-01-08T21:45:18.288Z,99.90
2019-01-08T21:47:45.947Z,99.90
2019-01-08T21:50:15.498Z,99.90
2019-01-08T21:52:44.746Z,99.90
2019-01-08T21:55:15.099Z,99.90
2019-01-08T21:57:43.697Z,99.90
2019-01-08T22:00:11.839Z,99.90
2019-01-08T22:02:42.918Z,99.90
2019-01-08T22:05:13.081Z,99.90
2019-01-08T22:07:41.378Z,99.90
2019-01-08T22:10:11.385Z,99.90
2019-01-08T22:12:39.387Z,99.90
2019-01-08T22:15:07.008Z,99.90
2019-01-08T22:17:35.255Z,99.90
2019-01-08T22:20:03.848Z,99.90
2019-01-08T22:22:32.028Z,99.90
2019-01-08T22:25:00.514Z,99.90
2019-01-08T22:27:30.819Z,99.90
2019-01-08T22:29:59.108Z,99.90
2019-01-08T22:32:27.574Z,99.90
2019-01-08T22:35:02.119Z,99.90
2019-01-08T22:37:25.789Z,99.90
2019-01-08T22:39:53.763Z,99.90
2019-01-08T22:42:21.871Z,99.90
2019-01-08T22:44:51.509Z,99.90
2019-01-08T22:47:19.932Z,99.90
2019-01-08T22:49:48.629Z,99.90
2019-01-08T22:52:16.173Z,99.90
2019-01-08T22:54:46.783Z,99.90
2019-01-08T22:57:14.995Z,99.90
2019-01-08T22:59:44.296Z,99.90
2019-01-08T23:02:16.431Z,99.90
2019-01-08T23:04:47.600Z,99.90
2019-01-08T23:07:15.486Z,99.90
2019-01-08T23:09:43.730Z,99.90
2019-01-08T23:12:12.184Z,99.90
2019-01-08T23:14:40.722Z,99.90
2019-01-08T23:17:08.944Z,99.90
2019-01-08T23:19:37.290Z,99.90
2019-01-08T23:22:04.965Z,99.90
2019-01-08T23:24:32.980Z,99.90
2019-01-08T23:27:00.624Z,99.90
2019-01-08T23:29:28.162Z,99.90
2019-01-08T23:31:56.324Z,99.90
2019-01-08T23:34:23.884Z,99.90
2019-01-08T23:36:52.024Z,99.90
2019-01-08T23:39:20.081Z,99.90
2019-01-08T23:41:47.607Z,99.90
2019-01-08T23:44:15.560Z,99.90
2019-01-08T23:46:43.988Z,99.90
2019-01-08T23:49:11.631Z,99.90
2019-01-08T23:51:39.732Z,99.90
2019-01-08T23:54:08.135Z,99.90
2019-01-08T23:56:35.681Z,99.90
2019-01-08T23:59:03.650Z,99.90
